createdAt,value
2022-11-16T00:00:13.389Z,7.30
2022-11-16T00:01:13.384Z,6.60
2022-11-16T00:02:13.526Z,7.20
2022-11-16T00:03:13.356Z,6.80
2022-11-16T00:04:13.346Z,6.30
2022-11-16T00:05:13.363Z,7.20
2022-11-16T00:06:13.322Z,6.80
2022-11-16T00:07:13.359Z,6.50
2022-11-16T00:08:13.290Z,6.30
2022-11-16T00:09:13.279Z,5.90
2022-11-16T00:10:13.277Z,5.60
2022-11-16T00:11:13.246Z,6.00
2022-11-16T00:12:13.268Z,5.90
2022-11-16T00:13:13.247Z,5.60
2022-11-16T00:14:13.206Z,5.40
2022-11-16T00:15:13.184Z,5.70
2022-11-16T00:16:13.200Z,6.40
2022-11-16T00:17:13.205Z,8.10
2022-11-16T00:18:13.295Z,6.70
2022-11-16T00:19:13.162Z,13.60
2022-11-16T00:20:13.157Z,13.40
2022-11-16T00:21:13.147Z,8.00
2022-11-16T00:22:13.119Z,38.60
2022-11-16T00:23:13.084Z,16.80
2022-11-16T00:24:13.088Z,15.00
2022-11-16T00:25:13.084Z,12.10
2022-11-16T00:26:13.059Z,12.60
2022-11-16T00:27:13.067Z,10.20
2022-11-16T00:28:13.035Z,9.30
2022-11-16T00:29:13.026Z,8.70
2022-11-16T00:30:12.980Z,8.00
2022-11-16T00:31:12.989Z,7.60
2022-11-16T00:32:12.997Z,8.10
2022-11-16T00:33:12.952Z,6.60
2022-11-16T00:34:12.939Z,6.60
2022-11-16T00:35:12.922Z,5.40
2022-11-16T00:36:12.913Z,5.90
2022-11-16T00:37:12.923Z,5.50
2022-11-16T00:38:12.894Z,6.00
2022-11-16T00:39:12.885Z,6.30
2022-11-16T00:40:12.877Z,5.90
2022-11-16T00:41:12.886Z,6.50
2022-11-16T00:42:12.862Z,6.10
2022-11-16T00:43:12.862Z,6.30
2022-11-16T00:44:12.805Z,6.20
2022-11-16T00:45:12.816Z,7.30
2022-11-16T00:46:12.804Z,6.30
2022-11-16T00:47:12.801Z,7.50
2022-11-16T00:48:12.753Z,8.30
2022-11-16T00:49:12.773Z,7.90
2022-11-16T00:50:12.731Z,6.40
2022-11-16T00:51:12.716Z,6.40
2022-11-16T00:52:12.697Z,7.00
2022-11-16T00:53:12.689Z,6.20
2022-11-16T00:54:12.725Z,5.70
2022-11-16T00:55:12.675Z,6.20
2022-11-16T00:56:12.646Z,7.00
2022-11-16T00:57:12.693Z,6.50
2022-11-16T00:58:12.628Z,5.90
2022-11-16T00:59:12.636Z,5.70
2022-11-16T01:00:12.597Z,4.80
2022-11-16T01:01:12.729Z,5.00
2022-11-16T01:02:12.557Z,5.00
2022-11-16T01:03:12.556Z,4.70
2022-11-16T01:04:12.563Z,5.70
2022-11-16T01:05:12.534Z,5.40
2022-11-16T01:06:12.505Z,4.90
2022-11-16T01:07:12.556Z,5.40
2022-11-16T01:08:12.478Z,4.70
2022-11-16T01:09:12.504Z,4.50
2022-11-16T01:10:12.459Z,4.50
2022-11-16T01:11:12.469Z,4.40
2022-11-16T01:12:12.431Z,4.30
2022-11-16T01:13:12.421Z,4.50
2022-11-16T01:14:12.430Z,4.90
2022-11-16T01:15:12.391Z,5.10
2022-11-16T01:16:12.376Z,5.10
2022-11-16T01:17:12.364Z,5.20
2022-11-16T01:18:12.357Z,5.00
2022-11-16T01:19:12.380Z,5.10
2022-11-16T01:20:12.319Z,11.90
2022-11-16T01:21:12.320Z,12.70
2022-11-16T01:22:12.292Z,11.20
2022-11-16T01:23:12.287Z,12.30
2022-11-16T01:24:12.306Z,14.20
2022-11-16T01:25:12.258Z,12.20
2022-11-16T01:26:12.245Z,12.50
2022-11-16T01:27:12.231Z,12.30
2022-11-16T01:28:12.215Z,12.50
2022-11-16T01:29:12.240Z,12.30
2022-11-16T01:30:12.201Z,9.20
2022-11-16T01:31:12.214Z,8.10
2022-11-16T01:32:12.168Z,7.20
2022-11-16T01:33:12.159Z,7.40
2022-11-16T01:34:12.147Z,6.50
2022-11-16T01:35:12.155Z,6.90
2022-11-16T01:36:12.125Z,8.00
2022-11-16T01:37:12.154Z,7.20
2022-11-16T01:38:12.088Z,7.70
2022-11-16T01:39:12.104Z,7.80
2022-11-16T01:40:12.055Z,6.20
2022-11-16T01:41:12.051Z,5.00
2022-11-16T01:42:12.165Z,4.90
2022-11-16T01:43:12.035Z,4.50
2022-11-16T01:44:12.009Z,4.70
2022-11-16T01:45:12.027Z,7.30
2022-11-16T01:46:11.990Z,6.40
2022-11-16T01:47:12.004Z,5.30
2022-11-16T01:48:11.997Z,5.80
2022-11-16T01:49:11.948Z,4.90
2022-11-16T01:50:11.939Z,5.90
2022-11-16T01:51:11.927Z,5.60
2022-11-16T01:52:11.901Z,5.80
2022-11-16T01:53:11.892Z,5.90
2022-11-16T01:54:11.870Z,5.20
2022-11-16T01:55:11.887Z,5.20
2022-11-16T01:56:11.847Z,5.20
2022-11-16T01:57:11.838Z,5.30
2022-11-16T01:58:11.813Z,4.60
2022-11-16T01:59:11.843Z,4.90
2022-11-16T02:00:11.808Z,4.20
2022-11-16T02:01:11.871Z,4.60
2022-11-16T02:02:11.765Z,4.80
2022-11-16T02:03:11.779Z,5.40
2022-11-16T02:04:11.743Z,6.00
2022-11-16T02:05:11.726Z,5.40
2022-11-16T02:06:11.742Z,4.40
2022-11-16T02:07:11.776Z,5.60
2022-11-16T02:08:11.688Z,5.00
2022-11-16T02:09:11.673Z,5.30
2022-11-16T02:10:11.677Z,5.20
2022-11-16T02:11:11.670Z,4.60
2022-11-16T02:12:11.661Z,4.80
2022-11-16T02:13:11.634Z,4.80
2022-11-16T02:14:11.630Z,4.80
2022-11-16T02:15:11.605Z,4.70
2022-11-16T02:16:11.612Z,4.80
2022-11-16T02:17:11.575Z,4.60
2022-11-16T02:18:11.582Z,4.80
2022-11-16T02:19:11.543Z,4.50
2022-11-16T02:20:11.526Z,4.00
2022-11-16T02:21:11.513Z,4.60
2022-11-16T02:22:11.534Z,4.20
2022-11-16T02:23:11.489Z,4.70
2022-11-16T02:24:11.500Z,4.70
2022-11-16T02:25:11.464Z,4.20
2022-11-16T02:26:11.435Z,4.40
2022-11-16T02:27:11.434Z,4.20
2022-11-16T02:28:11.418Z,3.70
2022-11-16T02:29:11.426Z,4.50
2022-11-16T02:30:11.394Z,4.30
2022-11-16T02:31:11.382Z,4.30
2022-11-16T02:32:11.351Z,4.60
2022-11-16T02:33:11.368Z,4.10
2022-11-16T02:34:11.339Z,4.50
2022-11-16T02:35:11.365Z,4.50
2022-11-16T02:36:11.310Z,3.90
2022-11-16T02:37:11.296Z,4.60
2022-11-16T02:38:11.277Z,4.60
2022-11-16T02:39:11.297Z,4.30
2022-11-16T02:40:11.252Z,4.70
2022-11-16T02:41:11.257Z,4.50
2022-11-16T02:42:11.226Z,4.40
2022-11-16T02:43:11.213Z,4.80
2022-11-16T02:44:11.191Z,4.40
2022-11-16T02:45:11.218Z,4.60
2022-11-16T02:46:11.186Z,4.90
2022-11-16T02:47:11.172Z,4.80
2022-11-16T02:48:11.137Z,5.10
2022-11-16T02:49:11.146Z,5.20
2022-11-16T02:50:11.111Z,5.10
2022-11-16T02:51:11.126Z,5.30
2022-11-16T02:52:11.093Z,5.00
2022-11-16T02:53:11.072Z,4.30
2022-11-16T02:54:11.063Z,4.80
2022-11-16T02:55:11.089Z,4.40
2022-11-16T02:56:11.080Z,4.70
2022-11-16T02:57:11.023Z,4.80
2022-11-16T02:58:11.006Z,4.30
2022-11-16T02:59:15.242Z,5.20
2022-11-16T03:00:10.977Z,4.80
2022-11-16T03:01:11.005Z,4.40
2022-11-16T03:02:10.980Z,4.90
2022-11-16T03:03:10.956Z,4.90
2022-11-16T03:04:10.939Z,4.70
2022-11-16T03:05:10.912Z,5.00
2022-11-16T03:06:10.904Z,4.50
2022-11-16T03:07:10.943Z,4.70
2022-11-16T03:08:10.906Z,4.70
2022-11-16T03:09:10.866Z,4.40
2022-11-16T03:10:10.842Z,4.70
2022-11-16T03:11:10.833Z,4.50
2022-11-16T03:12:10.831Z,4.10
2022-11-16T03:13:10.846Z,4.90
2022-11-16T03:14:10.816Z,4.50
2022-11-16T03:15:10.793Z,4.40
2022-11-16T03:16:10.776Z,4.50
2022-11-16T03:17:10.769Z,4.20
2022-11-16T03:18:10.778Z,4.60
2022-11-16T03:19:10.745Z,4.60
2022-11-16T03:20:10.712Z,4.40
2022-11-16T03:21:10.706Z,4.70
2022-11-16T03:22:10.705Z,4.50
2022-11-16T03:23:10.703Z,4.60
2022-11-16T03:24:10.687Z,4.70
2022-11-16T03:25:10.647Z,4.40
2022-11-16T03:26:10.641Z,4.10
2022-11-16T03:27:10.628Z,4.60
2022-11-16T03:28:10.602Z,4.30
2022-11-16T03:29:10.628Z,4.50
2022-11-16T03:30:10.584Z,4.50
2022-11-16T03:31:10.562Z,4.30
2022-11-16T03:32:10.562Z,4.70
2022-11-16T03:33:10.554Z,4.70
2022-11-16T03:34:10.546Z,4.30
2022-11-16T03:35:10.516Z,4.80
2022-11-16T03:36:10.494Z,5.00
2022-11-16T03:37:10.487Z,3.60
2022-11-16T03:38:10.479Z,4.50
2022-11-16T03:39:10.511Z,4.40
2022-11-16T03:40:10.479Z,4.70
2022-11-16T03:41:10.444Z,6.30
2022-11-16T03:42:10.429Z,6.30
2022-11-16T03:43:10.477Z,7.40
2022-11-16T03:44:10.420Z,8.80
2022-11-16T03:45:10.376Z,7.40
2022-11-16T03:46:10.384Z,7.00
2022-11-16T03:47:10.356Z,5.00
2022-11-16T03:48:10.331Z,4.70
2022-11-16T03:49:10.369Z,5.00
2022-11-16T03:50:10.305Z,5.70
2022-11-16T03:51:10.316Z,5.20
2022-11-16T03:52:10.276Z,5.00
2022-11-16T03:53:10.265Z,5.60
2022-11-16T03:54:10.275Z,5.70
2022-11-16T03:55:10.239Z,5.80
2022-11-16T03:56:10.254Z,4.90
2022-11-16T03:57:10.212Z,7.20
2022-11-16T03:58:10.199Z,7.00
2022-11-16T03:59:10.182Z,6.50
2022-11-16T04:00:10.219Z,6.40
2022-11-16T04:01:10.282Z,5.50
2022-11-16T04:02:10.142Z,4.50
2022-11-16T04:03:10.131Z,5.90
2022-11-16T04:04:10.112Z,5.20
2022-11-16T04:05:10.129Z,5.10
2022-11-16T04:06:10.101Z,5.30
2022-11-16T04:07:10.137Z,5.30
2022-11-16T04:08:10.062Z,4.90
2022-11-16T04:09:10.059Z,5.10
2022-11-16T04:10:10.053Z,4.30
2022-11-16T04:11:10.024Z,4.70
2022-11-16T04:12:10.011Z,4.90
2022-11-16T04:13:10.011Z,4.70
2022-11-16T04:14:09.986Z,5.20
2022-11-16T04:15:09.994Z,4.80
2022-11-16T04:16:09.976Z,4.60
2022-11-16T04:17:09.940Z,5.40
2022-11-16T04:18:09.952Z,5.10
2022-11-16T04:19:09.908Z,5.10
2022-11-16T04:20:09.901Z,5.20
2022-11-16T04:21:09.909Z,5.20
2022-11-16T04:22:09.884Z,5.40
2022-11-16T04:23:09.907Z,5.20
2022-11-16T04:24:09.844Z,4.60
2022-11-16T04:25:09.832Z,5.20
2022-11-16T04:26:09.822Z,5.80
2022-11-16T04:27:09.818Z,6.60
2022-11-16T04:28:09.835Z,6.70
2022-11-16T04:29:09.785Z,6.40
2022-11-16T04:30:09.795Z,6.60
2022-11-16T04:31:09.748Z,6.40
2022-11-16T04:32:09.755Z,7.50
2022-11-16T04:33:09.767Z,9.00
2022-11-16T04:34:09.712Z,9.40
2022-11-16T04:35:09.718Z,9.80
2022-11-16T04:36:09.702Z,9.80
2022-11-16T04:37:09.669Z,10.80
2022-11-16T04:38:09.696Z,10.50
2022-11-16T04:39:09.677Z,10.80
2022-11-16T04:40:09.642Z,10.60
2022-11-16T04:41:09.656Z,10.90
2022-11-16T04:42:09.662Z,10.80
2022-11-16T04:43:09.620Z,10.60
2022-11-16T04:44:09.615Z,11.20
2022-11-16T04:45:09.562Z,11.00
2022-11-16T04:46:09.561Z,10.80
2022-11-16T04:47:09.570Z,11.50
2022-11-16T04:48:09.646Z,11.20
2022-11-16T04:49:09.543Z,11.30
2022-11-16T04:50:09.505Z,10.80
2022-11-16T04:51:09.483Z,11.20
2022-11-16T04:52:09.491Z,11.30
2022-11-16T04:53:09.473Z,11.90
2022-11-16T04:54:09.472Z,11.90
2022-11-16T04:55:09.428Z,12.50
2022-11-16T04:56:09.420Z,12.80
2022-11-16T04:57:09.436Z,13.30
2022-11-16T04:58:09.397Z,13.70
2022-11-16T04:59:09.460Z,13.60
2022-11-16T05:00:09.410Z,13.20
2022-11-16T05:01:09.388Z,13.50
2022-11-16T05:02:09.344Z,13.50
2022-11-16T05:03:09.327Z,13.90
2022-11-16T05:04:09.320Z,13.20
2022-11-16T05:05:09.349Z,13.90
2022-11-16T05:06:09.277Z,13.90
2022-11-16T05:07:09.307Z,13.60
2022-11-16T05:08:09.442Z,13.50
2022-11-16T05:09:09.253Z,13.60
2022-11-16T05:10:09.273Z,13.70
2022-11-16T05:11:09.244Z,14.50
2022-11-16T05:12:09.253Z,13.60
2022-11-16T05:13:09.209Z,14.10
2022-11-16T05:14:09.227Z,14.50
2022-11-16T05:15:09.157Z,13.80
2022-11-16T05:16:09.177Z,14.00
2022-11-16T05:17:09.150Z,13.30
2022-11-16T05:18:09.154Z,13.30
2022-11-16T05:19:09.112Z,14.10
2022-11-16T05:20:09.095Z,13.50
2022-11-16T05:21:09.081Z,13.20
2022-11-16T05:22:09.102Z,13.80
2022-11-16T05:23:09.062Z,13.50
2022-11-16T05:24:09.077Z,13.70
2022-11-16T05:25:09.049Z,14.10
2022-11-16T05:26:09.054Z,13.80
2022-11-16T05:27:09.040Z,13.70
2022-11-16T05:28:09.019Z,14.10
2022-11-16T05:29:08.972Z,14.30
2022-11-16T05:30:08.966Z,14.50
2022-11-16T05:31:08.979Z,14.60
2022-11-16T05:32:08.945Z,14.50
2022-11-16T05:33:08.949Z,14.40
2022-11-16T05:34:08.909Z,14.40
2022-11-16T05:35:08.892Z,14.40
2022-11-16T05:36:08.898Z,13.90
2022-11-16T05:37:08.870Z,13.30
2022-11-16T05:38:08.879Z,14.40
2022-11-16T05:39:08.881Z,14.90
2022-11-16T05:40:08.831Z,14.90
2022-11-16T05:41:08.837Z,14.50
2022-11-16T05:42:08.818Z,13.80
2022-11-16T05:43:08.844Z,14.00
2022-11-16T05:44:08.786Z,14.40
2022-11-16T05:45:08.756Z,14.70
2022-11-16T05:46:08.796Z,14.50
2022-11-16T05:47:08.738Z,14.90
2022-11-16T05:48:08.759Z,14.70
2022-11-16T05:49:08.709Z,14.80
2022-11-16T05:50:08.695Z,14.50
2022-11-16T05:51:08.693Z,14.70
2022-11-16T05:52:08.673Z,15.50
2022-11-16T05:53:08.683Z,14.90
2022-11-16T05:54:08.651Z,16.10
2022-11-16T05:55:08.632Z,16.50
2022-11-16T05:56:08.781Z,17.50
2022-11-16T05:57:08.625Z,17.90
2022-11-16T05:58:08.625Z,17.90
2022-11-16T05:59:13.715Z,18.00
2022-11-16T06:00:08.568Z,16.70
2022-11-16T06:01:08.542Z,16.90
2022-11-16T06:02:08.550Z,17.30
2022-11-16T06:03:08.558Z,16.90
2022-11-16T06:04:08.535Z,17.00
2022-11-16T06:05:08.506Z,16.30
2022-11-16T06:06:08.489Z,17.50
2022-11-16T06:07:08.611Z,16.90
2022-11-16T06:08:08.469Z,16.30
2022-11-16T06:09:08.464Z,16.10
2022-11-16T06:10:08.442Z,15.90
2022-11-16T06:11:08.419Z,16.50
2022-11-16T06:12:08.410Z,16.70
2022-11-16T06:13:08.381Z,16.00
2022-11-16T06:14:08.434Z,20.90
2022-11-16T06:15:08.392Z,19.20
2022-11-16T06:16:08.350Z,21.90
2022-11-16T06:17:08.347Z,17.70
2022-11-16T06:18:08.323Z,18.00
2022-11-16T06:19:08.317Z,17.30
2022-11-16T06:20:08.336Z,16.40
2022-11-16T06:21:08.293Z,16.80
2022-11-16T06:22:08.272Z,17.40
2022-11-16T06:23:08.313Z,16.90
2022-11-16T06:24:08.247Z,18.10
2022-11-16T06:25:08.235Z,17.00
2022-11-16T06:26:08.224Z,17.20
2022-11-16T06:27:08.238Z,17.00
2022-11-16T06:28:08.488Z,16.00
2022-11-16T06:29:08.179Z,15.80
2022-11-16T06:30:08.188Z,16.00
2022-11-16T06:31:08.148Z,15.90
2022-11-16T06:32:08.136Z,15.20
2022-11-16T06:33:08.143Z,15.80
2022-11-16T06:34:08.116Z,16.40
2022-11-16T06:35:08.114Z,15.90
2022-11-16T06:36:08.090Z,15.30
2022-11-16T06:37:08.078Z,15.40
2022-11-16T06:38:08.086Z,15.40
2022-11-16T06:39:08.040Z,15.30
2022-11-16T06:40:08.032Z,15.60
2022-11-16T06:41:08.056Z,15.50
2022-11-16T06:42:08.039Z,15.70
2022-11-16T06:43:07.988Z,17.60
2022-11-16T06:44:08.027Z,18.90
2022-11-16T06:45:07.980Z,18.50
2022-11-16T06:46:07.982Z,48.80
2022-11-16T06:47:07.932Z,29.80
2022-11-16T06:48:07.924Z,28.90
2022-11-16T06:49:07.902Z,23.50
2022-11-16T06:50:07.913Z,20.60
2022-11-16T06:51:07.914Z,21.30
2022-11-16T06:52:07.867Z,23.80
2022-11-16T06:53:07.852Z,23.70
2022-11-16T06:54:07.864Z,22.40
2022-11-16T06:55:07.845Z,20.30
2022-11-16T06:56:07.835Z,19.40
2022-11-16T06:57:07.800Z,18.80
2022-11-16T06:58:07.799Z,18.70
2022-11-16T06:59:07.800Z,18.00
2022-11-16T07:00:07.793Z,18.40
2022-11-16T07:01:07.749Z,19.50
2022-11-16T07:02:07.784Z,20.50
2022-11-16T07:03:07.720Z,22.10
2022-11-16T07:04:07.734Z,19.90
2022-11-16T07:05:07.697Z,18.60
2022-11-16T07:06:07.699Z,18.30
2022-11-16T07:07:07.702Z,17.80
2022-11-16T07:08:07.653Z,17.70
2022-11-16T07:09:07.670Z,17.50
2022-11-16T07:10:07.630Z,24.90
2022-11-16T07:11:07.620Z,22.00
2022-11-16T07:12:07.607Z,21.00
2022-11-16T07:13:07.607Z,22.30
2022-11-16T07:14:07.588Z,22.90
2022-11-16T07:15:07.593Z,27.30
2022-11-16T07:16:07.554Z,27.20
2022-11-16T07:17:09.717Z,27.10
2022-11-16T07:18:07.552Z,26.90
2022-11-16T07:19:07.507Z,29.00
2022-11-16T07:20:07.561Z,29.80
2022-11-16T07:21:07.474Z,29.20
2022-11-16T07:22:07.464Z,28.60
2022-11-16T07:23:11.440Z,26.90
2022-11-16T07:24:07.459Z,27.60
2022-11-16T07:25:07.456Z,27.60
2022-11-16T07:26:07.447Z,26.20
2022-11-16T07:27:07.393Z,25.10
2022-11-16T07:28:07.388Z,25.20
2022-11-16T07:29:07.389Z,24.10
2022-11-16T07:30:07.371Z,24.40
2022-11-16T07:31:07.365Z,27.20
2022-11-16T07:32:07.366Z,25.30
2022-11-16T07:33:07.366Z,25.30
2022-11-16T07:34:07.310Z,23.40
2022-11-16T07:35:07.411Z,23.50
2022-11-16T07:36:07.296Z,21.10
2022-11-16T07:37:07.311Z,21.80
2022-11-16T07:38:07.263Z,21.90
2022-11-16T07:39:07.257Z,22.20
2022-11-16T07:40:07.294Z,22.70
2022-11-16T07:41:07.206Z,21.00
2022-11-16T07:42:07.248Z,20.30
2022-11-16T07:43:07.185Z,21.10
2022-11-16T07:44:10.947Z,20.60
2022-11-16T07:45:07.156Z,19.00
2022-11-16T07:46:41.274Z,19.30
2022-11-16T07:47:07.161Z,18.30
2022-11-16T07:48:07.210Z,18.30
2022-11-16T07:49:11.320Z,18.40
2022-11-16T07:50:07.087Z,17.70
2022-11-16T07:51:07.145Z,17.40
2022-11-16T07:52:07.141Z,18.10
2022-11-16T07:53:07.054Z,18.60
2022-11-16T07:54:07.079Z,18.20
2022-11-16T07:55:07.031Z,17.80
2022-11-16T07:56:07.057Z,19.70
2022-11-16T07:57:07.003Z,18.40
2022-11-16T07:58:07.019Z,17.80
2022-11-16T07:59:06.979Z,18.80
2022-11-16T08:00:06.959Z,18.50
2022-11-16T08:01:06.939Z,18.00
2022-11-16T08:02:06.957Z,18.40
2022-11-16T08:03:06.947Z,21.10
2022-11-16T08:04:06.910Z,24.40
2022-11-16T08:05:06.934Z,23.10
2022-11-16T08:06:06.871Z,21.50
2022-11-16T08:07:06.924Z,18.30
2022-11-16T08:08:06.941Z,17.90
2022-11-16T08:09:06.870Z,18.20
2022-11-16T08:10:06.890Z,17.90
2022-11-16T08:11:06.820Z,19.20
2022-11-16T08:12:06.818Z,18.60
2022-11-16T08:13:06.787Z,17.70
2022-11-16T08:14:06.803Z,18.40
2022-11-16T08:15:06.758Z,18.30
2022-11-16T08:16:06.855Z,17.60
2022-11-16T08:17:06.740Z,21.10
2022-11-16T08:18:06.719Z,24.00
2022-11-16T08:19:06.778Z,19.40
2022-11-16T08:20:06.682Z,19.20
2022-11-16T08:21:06.748Z,17.70
2022-11-16T08:22:06.658Z,16.30
2022-11-16T08:23:06.652Z,16.40
2022-11-16T08:24:06.674Z,16.70
2022-11-16T08:25:06.623Z,16.40
2022-11-16T08:26:06.612Z,16.40
2022-11-16T08:27:06.616Z,18.20
2022-11-16T08:28:06.586Z,18.10
2022-11-16T08:29:06.597Z,18.30
2022-11-16T08:30:06.607Z,17.90
2022-11-16T08:31:06.567Z,20.20
2022-11-16T08:32:06.557Z,21.00
2022-11-16T08:33:06.568Z,22.50
2022-11-16T08:34:06.534Z,21.70
2022-11-16T08:35:06.490Z,19.30
2022-11-16T08:36:12.533Z,22.40
2022-11-16T08:37:06.499Z,20.70
2022-11-16T08:38:06.443Z,22.80
2022-11-16T08:39:06.515Z,24.00
2022-11-16T08:40:06.425Z,23.40
2022-11-16T08:41:06.419Z,18.00
2022-11-16T08:42:06.401Z,19.60
2022-11-16T08:43:06.380Z,18.80
2022-11-16T08:44:06.396Z,19.10
2022-11-16T08:45:06.394Z,19.10
2022-11-16T08:46:06.369Z,17.50
2022-11-16T08:47:06.371Z,18.30
2022-11-16T08:48:06.333Z,16.50
2022-11-16T08:49:06.303Z,17.20
2022-11-16T08:50:06.305Z,16.30
2022-11-16T08:51:21.755Z,16.00
2022-11-16T08:52:06.304Z,16.80
2022-11-16T08:53:06.262Z,15.70
2022-11-16T08:54:06.234Z,15.20
2022-11-16T08:55:06.217Z,16.30
2022-11-16T08:56:06.198Z,23.10
2022-11-16T08:57:06.248Z,26.30
2022-11-16T08:58:06.174Z,24.00
2022-11-16T08:59:06.179Z,23.50
2022-11-16T09:00:06.161Z,23.20
2022-11-16T09:01:06.158Z,20.70
2022-11-16T09:02:06.227Z,19.30
2022-11-16T09:03:06.131Z,20.20
2022-11-16T09:04:06.100Z,19.50
2022-11-16T09:05:06.116Z,23.80
2022-11-16T09:06:06.072Z,20.70
2022-11-16T09:07:06.197Z,18.10
2022-11-16T09:08:06.037Z,16.60
2022-11-16T09:09:06.090Z,17.40
2022-11-16T09:10:06.039Z,17.80
2022-11-16T09:11:06.019Z,19.80
2022-11-16T09:12:06.008Z,19.70
2022-11-16T09:13:06.005Z,19.60
2022-11-16T09:14:05.968Z,20.40
2022-11-16T09:15:05.943Z,21.70
2022-11-16T09:16:05.935Z,19.80
2022-11-16T09:17:05.917Z,17.00
2022-11-16T09:18:05.954Z,16.50
2022-11-16T09:19:05.907Z,18.70
2022-11-16T09:20:05.880Z,18.40
2022-11-16T09:21:05.869Z,18.70
2022-11-16T09:22:05.863Z,17.10
2022-11-16T09:23:05.877Z,15.10
2022-11-16T09:24:06.027Z,13.70
2022-11-16T09:25:05.860Z,13.30
2022-11-16T09:26:05.801Z,13.50
2022-11-16T09:27:05.799Z,13.30
2022-11-16T09:28:05.770Z,12.60
2022-11-16T09:29:05.788Z,13.00
2022-11-16T09:30:05.751Z,13.30
2022-11-16T09:31:05.737Z,12.90
2022-11-16T09:32:05.718Z,13.00
2022-11-16T09:33:05.742Z,12.60
2022-11-16T09:34:05.692Z,13.60
2022-11-16T09:35:05.678Z,12.40
2022-11-16T09:36:05.664Z,10.90
2022-11-16T09:37:05.673Z,9.30
2022-11-16T09:38:05.638Z,9.40
2022-11-16T09:40:05.618Z,9.90
2022-11-16T09:41:05.640Z,9.20
2022-11-16T09:42:05.575Z,10.00
2022-11-16T09:43:05.603Z,9.20
2022-11-16T09:44:05.549Z,9.60
2022-11-16T09:45:05.580Z,9.60
2022-11-16T09:46:05.560Z,8.50
2022-11-16T09:47:05.515Z,10.20
2022-11-16T09:48:05.503Z,9.10
2022-11-16T09:49:13.976Z,9.50
2022-11-16T09:50:05.478Z,9.60
2022-11-16T09:51:05.471Z,9.80
2022-11-16T09:52:05.471Z,10.70
2022-11-16T09:53:05.460Z,10.30
2022-11-16T09:54:05.447Z,10.70
2022-11-16T09:55:05.412Z,10.80
2022-11-16T09:56:05.403Z,10.40
2022-11-16T09:57:10.981Z,10.40
2022-11-16T09:58:05.393Z,11.30
2022-11-16T09:59:05.522Z,11.60
2022-11-16T10:00:05.338Z,12.50
2022-11-16T10:01:05.432Z,12.90
2022-11-16T10:02:05.309Z,11.80
2022-11-16T10:03:05.462Z,11.60
2022-11-16T10:04:05.312Z,11.30
2022-11-16T10:05:05.275Z,11.30
2022-11-16T10:06:05.277Z,11.70
2022-11-16T10:07:05.276Z,11.80
2022-11-16T10:08:05.252Z,12.20
2022-11-16T10:09:05.212Z,12.60
2022-11-16T10:10:05.220Z,12.50
2022-11-16T10:11:05.182Z,12.30
2022-11-16T10:12:05.165Z,12.10
2022-11-16T10:13:05.171Z,12.50
2022-11-16T10:14:05.168Z,11.90
2022-11-16T10:15:05.152Z,11.00
2022-11-16T10:16:05.119Z,11.50
2022-11-16T10:17:05.105Z,12.50
2022-11-16T10:18:05.098Z,12.30
2022-11-16T10:19:05.106Z,13.20
2022-11-16T10:20:05.068Z,11.20
2022-11-16T10:21:05.091Z,10.00
2022-11-16T10:22:05.037Z,9.70
2022-11-16T10:23:05.013Z,10.20
2022-11-16T10:24:05.016Z,10.40
2022-11-16T10:25:05.052Z,10.60
2022-11-16T10:26:04.973Z,10.70
2022-11-16T10:27:04.978Z,11.10
2022-11-16T10:28:04.938Z,10.60
2022-11-16T10:29:04.954Z,10.90
2022-11-16T10:30:04.952Z,10.60
2022-11-16T10:31:04.928Z,11.00
2022-11-16T10:32:04.896Z,10.80
2022-11-16T10:33:10.738Z,11.60
2022-11-16T10:34:04.891Z,11.60
2022-11-16T10:35:04.853Z,12.60
2022-11-16T10:36:04.869Z,12.30
2022-11-16T10:37:04.841Z,13.10
2022-11-16T10:38:04.820Z,13.40
2022-11-16T10:39:04.809Z,13.10
2022-11-16T10:40:04.826Z,13.70
2022-11-16T10:41:04.786Z,12.50
2022-11-16T10:42:07.739Z,15.10
2022-11-16T10:43:04.740Z,12.90
2022-11-16T10:44:04.734Z,11.30
2022-11-16T10:45:04.713Z,15.10
2022-11-16T10:46:04.733Z,12.30
2022-11-16T10:47:04.737Z,11.80
2022-11-16T10:48:04.710Z,11.80
2022-11-16T10:49:04.674Z,11.90
2022-11-16T10:50:04.648Z,12.20
2022-11-16T10:51:04.670Z,12.40
2022-11-16T10:52:04.632Z,11.80
2022-11-16T10:53:04.614Z,11.50
2022-11-16T10:54:04.614Z,10.70
2022-11-16T10:55:04.583Z,11.60
2022-11-16T10:56:04.605Z,11.60
2022-11-16T10:57:04.563Z,11.00
2022-11-16T10:58:04.553Z,10.80
2022-11-16T10:59:04.541Z,10.00
2022-11-16T11:00:06.645Z,11.00
2022-11-16T11:01:04.611Z,11.20
2022-11-16T11:02:04.525Z,11.10
2022-11-16T11:03:04.537Z,11.00
2022-11-16T11:04:04.480Z,11.00
2022-11-16T11:05:04.502Z,10.30
2022-11-16T11:06:04.435Z,9.90
2022-11-16T11:07:04.494Z,9.10
2022-11-16T11:08:04.400Z,10.20
2022-11-16T11:09:04.426Z,10.20
2022-11-16T11:10:04.383Z,11.60
2022-11-16T11:11:04.402Z,23.60
2022-11-16T11:12:04.378Z,30.30
2022-11-16T11:13:04.338Z,18.80
2022-11-16T11:14:04.330Z,19.20
2022-11-16T11:15:04.310Z,11.70
2022-11-16T11:16:04.359Z,15.00
2022-11-16T11:17:04.284Z,13.80
2022-11-16T11:18:04.282Z,12.60
2022-11-16T11:19:04.263Z,13.70
2022-11-16T11:20:04.240Z,12.90
2022-11-16T11:21:04.257Z,15.80
2022-11-16T11:22:04.215Z,17.30
2022-11-16T11:23:04.221Z,19.50
2022-11-16T11:24:37.364Z,18.30
2022-11-16T11:25:04.211Z,17.00
2022-11-16T11:26:04.176Z,17.00
2022-11-16T11:27:04.166Z,19.10
2022-11-16T11:28:04.170Z,20.40
2022-11-16T11:29:04.134Z,17.00
2022-11-16T11:30:04.102Z,18.80
2022-11-16T11:31:04.095Z,14.20
2022-11-16T11:32:04.079Z,12.70
2022-11-16T11:33:04.073Z,12.30
2022-11-16T11:34:04.107Z,13.90
2022-11-16T11:35:04.087Z,13.60
2022-11-16T11:36:04.032Z,14.90
2022-11-16T11:37:04.029Z,15.20
2022-11-16T11:38:07.990Z,14.60
2022-11-16T11:39:04.148Z,14.30
2022-11-16T11:40:03.984Z,13.00
2022-11-16T11:41:03.963Z,18.40
2022-11-16T11:42:03.948Z,43.10
2022-11-16T11:43:03.947Z,16.80
2022-11-16T11:44:03.917Z,16.20
2022-11-16T11:45:03.923Z,14.10
2022-11-16T11:46:03.918Z,14.20
2022-11-16T11:47:50.424Z,14.30
2022-11-16T11:48:03.870Z,15.50
2022-11-16T11:49:03.851Z,12.90
2022-11-16T11:50:03.872Z,13.40
2022-11-16T11:51:03.861Z,15.10
2022-11-16T11:52:03.844Z,14.20
2022-11-16T11:53:03.843Z,15.40
2022-11-16T11:54:03.791Z,30.80
2022-11-16T11:55:03.773Z,22.50
2022-11-16T11:56:03.754Z,22.10
2022-11-16T11:57:03.773Z,23.00
2022-11-16T11:58:03.751Z,21.30
2022-11-16T11:59:03.716Z,22.90
2022-11-16T12:00:03.692Z,21.80
2022-11-16T12:01:03.681Z,22.20
2022-11-16T12:02:03.708Z,21.90
2022-11-16T12:03:03.716Z,21.40
2022-11-16T12:04:03.704Z,20.30
2022-11-16T12:05:03.658Z,18.30
2022-11-16T12:06:03.653Z,15.70
2022-11-16T12:07:03.667Z,15.20
2022-11-16T12:08:03.617Z,16.50
2022-11-16T12:09:03.581Z,19.40
2022-11-16T12:10:03.627Z,17.80
2022-11-16T12:11:03.545Z,20.50
2022-11-16T12:12:03.538Z,18.10
2022-11-16T12:13:03.555Z,24.90
2022-11-16T12:14:03.521Z,28.00
2022-11-16T12:15:03.516Z,22.00
2022-11-16T12:16:03.476Z,22.80
2022-11-16T12:17:03.487Z,19.40
2022-11-16T12:18:03.486Z,18.70
2022-11-16T12:19:03.460Z,16.00
2022-11-16T12:20:03.433Z,15.50
2022-11-16T12:21:03.412Z,13.60
2022-11-16T12:22:03.437Z,17.10
2022-11-16T12:23:04.444Z,13.30
2022-11-16T12:24:03.388Z,11.20
2022-11-16T12:25:03.359Z,10.40
2022-11-16T12:26:03.358Z,9.90
2022-11-16T12:27:03.355Z,9.80
2022-11-16T12:28:03.312Z,7.60
2022-11-16T12:29:03.326Z,7.90
2022-11-16T12:30:03.303Z,7.50
2022-11-16T12:31:03.273Z,8.10
2022-11-16T12:32:03.275Z,8.50
2022-11-16T12:33:03.285Z,8.60
2022-11-16T12:34:03.246Z,8.40
2022-11-16T12:35:03.221Z,7.80
2022-11-16T12:36:03.249Z,7.40
2022-11-16T12:37:03.202Z,8.00
2022-11-16T12:38:03.178Z,7.10
2022-11-16T12:39:03.170Z,7.00
2022-11-16T12:40:03.155Z,7.10
2022-11-16T12:41:03.179Z,7.30
2022-11-16T12:42:03.163Z,7.10
2022-11-16T12:43:03.128Z,6.60
2022-11-16T12:44:03.107Z,7.10
2022-11-16T12:45:03.102Z,6.20
2022-11-16T12:46:03.082Z,8.10
2022-11-16T12:47:03.087Z,7.50
2022-11-16T12:48:03.062Z,50.70
2022-11-16T12:49:03.074Z,25.40
2022-11-16T12:50:03.019Z,26.10
2022-11-16T12:51:03.025Z,33.70
2022-11-16T12:52:02.993Z,7.70
2022-11-16T12:53:02.974Z,6.10
2022-11-16T12:54:03.037Z,6.40
2022-11-16T12:56:02.973Z,7.90
2022-11-16T12:57:02.918Z,7.00
2022-11-16T12:58:02.921Z,24.50
2022-11-16T12:59:02.916Z,22.80
2022-11-16T13:00:02.904Z,20.10
2022-11-16T13:01:03.014Z,17.00
2022-11-16T13:02:02.884Z,12.10
2022-11-16T13:03:02.849Z,10.80
2022-11-16T13:04:02.832Z,11.00